createdAt,value
2023-02-02T00:01:41.939Z,24.46
2023-02-02T00:04:09.122Z,24.45
2023-02-02T00:06:35.475Z,24.43
2023-02-02T00:09:02.092Z,24.44
2023-02-02T00:11:28.448Z,24.43
2023-02-02T00:13:54.868Z,24.37
2023-02-02T00:16:21.959Z,24.38
2023-02-02T00:18:48.640Z,24.33
2023-02-02T00:21:14.967Z,24.34
2023-02-02T00:23:41.281Z,24.30
2023-02-02T00:26:07.626Z,24.29
2023-02-02T00:28:34.013Z,24.27
2023-02-02T00:31:00.398Z,24.23
2023-02-02T00:33:26.753Z,24.23
2023-02-02T00:35:53.379Z,24.21
2023-02-02T00:38:19.757Z,24.19
2023-02-02T00:40:46.084Z,24.15
2023-02-02T00:43:12.689Z,24.12
2023-02-02T00:45:39.083Z,24.11
2023-02-02T00:48:05.490Z,24.03
2023-02-02T00:50:31.841Z,23.86
2023-02-02T00:52:59.019Z,23.92
2023-02-02T00:55:26.079Z,23.97
2023-02-02T00:57:52.561Z,23.95
2023-02-02T01:00:23.583Z,23.94
2023-02-02T01:02:50.326Z,23.91
2023-02-02T01:05:16.742Z,23.91
2023-02-02T01:07:43.077Z,23.88
2023-02-02T01:10:12.579Z,23.88
2023-02-02T01:12:38.909Z,23.83
2023-02-02T01:15:05.442Z,23.83
2023-02-02T01:17:31.760Z,23.81
2023-02-02T01:19:58.083Z,23.80
2023-02-02T01:22:24.400Z,23.77
2023-02-02T01:24:50.717Z,23.75
2023-02-02T01:27:17.096Z,23.73
2023-02-02T01:29:43.461Z,23.71
2023-02-02T01:32:09.779Z,23.68
2023-02-02T01:34:36.143Z,23.67
2023-02-02T01:37:02.472Z,23.67
2023-02-02T01:39:29.046Z,23.62
2023-02-02T01:41:55.402Z,23.61
2023-02-02T01:44:40.617Z,23.58
2023-02-02T01:47:06.931Z,23.57
2023-02-02T01:49:33.244Z,23.54
2023-02-02T01:51:59.581Z,23.53
2023-02-02T01:54:28.536Z,23.51
2023-02-02T01:56:56.320Z,23.48
2023-02-02T01:59:22.657Z,23.46
2023-02-02T02:01:48.970Z,23.45
2023-02-02T02:04:15.381Z,23.42
2023-02-02T02:06:42.520Z,23.41
2023-02-02T02:09:08.867Z,23.37
2023-02-02T02:11:35.432Z,23.34
2023-02-02T02:14:21.524Z,23.33
2023-02-02T02:17:01.914Z,23.31
2023-02-02T02:20:06.280Z,23.30
2023-02-02T02:23:06.474Z,23.27
2023-02-02T02:26:05.031Z,23.26
2023-02-02T02:28:49.161Z,23.24
2023-02-02T02:31:40.873Z,23.24
2023-02-02T02:34:14.957Z,23.21
2023-02-02T02:36:51.518Z,23.22
2023-02-02T02:39:26.221Z,23.22
2023-02-02T02:41:53.281Z,23.19
2023-02-02T02:44:19.585Z,23.19
2023-02-02T02:46:45.889Z,23.18
2023-02-02T02:49:12.389Z,23.16
2023-02-02T02:51:43.854Z,23.13
2023-02-02T02:54:13.874Z,23.11
2023-02-02T02:56:53.803Z,23.07
2023-02-02T02:59:24.531Z,23.02
2023-02-02T03:01:55.866Z,23.02
2023-02-02T03:04:23.071Z,22.98
2023-02-02T03:06:57.357Z,22.99
2023-02-02T03:09:25.003Z,22.94
2023-02-02T03:11:51.319Z,23.04
2023-02-02T03:14:17.635Z,23.09
2023-02-02T03:16:43.998Z,23.09
2023-02-02T03:19:10.326Z,23.06
2023-02-02T03:21:36.721Z,23.04
2023-02-02T03:24:03.048Z,23.02
2023-02-02T03:26:29.727Z,23.00
2023-02-02T03:28:57.058Z,22.99
2023-02-02T03:31:23.787Z,22.96
2023-02-02T03:33:50.109Z,22.95
2023-02-02T03:36:16.441Z,22.91
2023-02-02T03:38:42.838Z,22.87
2023-02-02T03:41:09.175Z,22.87
2023-02-02T03:43:38.159Z,22.89
2023-02-02T03:46:05.084Z,22.94
2023-02-02T03:48:31.536Z,22.92
2023-02-02T03:50:57.911Z,22.91
2023-02-02T03:53:26.511Z,22.91
2023-02-02T03:55:52.890Z,22.90
2023-02-02T03:58:22.145Z,22.88
2023-02-02T04:00:48.691Z,22.85
2023-02-02T04:03:15.323Z,22.83
2023-02-02T04:05:41.675Z,22.81
2023-02-02T04:08:08.049Z,22.78
2023-02-02T04:10:34.632Z,22.79
2023-02-02T04:13:01.022Z,22.80
2023-02-02T04:15:27.785Z,22.86
2023-02-02T04:17:54.177Z,22.81
2023-02-02T04:20:20.807Z,22.81
2023-02-02T04:22:47.126Z,22.82
2023-02-02T04:25:13.435Z,22.80
2023-02-02T04:27:39.778Z,22.81
2023-02-02T04:30:06.358Z,22.79
2023-02-02T04:32:32.714Z,22.77
2023-02-02T04:34:59.027Z,22.75
2023-02-02T04:37:25.362Z,22.74
2023-02-02T04:39:51.744Z,22.72
2023-02-02T04:42:18.413Z,22.69
2023-02-02T04:44:46.078Z,22.67
2023-02-02T04:47:12.411Z,22.64
2023-02-02T04:49:38.720Z,22.62
2023-02-02T04:52:05.158Z,22.59
2023-02-02T04:54:31.474Z,22.58
2023-02-02T04:56:58.094Z,22.55
2023-02-02T04:59:24.628Z,22.54
2023-02-02T05:01:50.951Z,22.53
2023-02-02T05:04:17.271Z,22.52
2023-02-02T05:06:43.623Z,22.50
2023-02-02T05:09:10.522Z,22.49
2023-02-02T05:11:38.846Z,22.46
2023-02-02T05:14:05.472Z,22.43
2023-02-02T05:16:32.100Z,22.41
2023-02-02T05:18:59.388Z,22.41
2023-02-02T05:21:25.738Z,22.38
2023-02-02T05:23:52.041Z,22.37
2023-02-02T05:26:20.074Z,22.40
2023-02-02T05:28:46.682Z,22.38
2023-02-02T05:31:13.054Z,22.42
2023-02-02T05:33:39.467Z,22.43
2023-02-02T05:36:05.899Z,22.44
2023-02-02T05:38:32.218Z,22.43
2023-02-02T05:41:01.460Z,22.44
2023-02-02T05:43:28.189Z,22.45
2023-02-02T05:45:54.540Z,22.43
2023-02-02T05:48:20.873Z,22.43
2023-02-02T05:50:49.439Z,22.42
2023-02-02T05:53:15.808Z,22.41
2023-02-02T05:55:42.124Z,22.39
2023-02-02T05:58:08.434Z,22.37
2023-02-02T06:00:35.033Z,22.33
2023-02-02T06:03:01.426Z,22.36
2023-02-02T06:05:27.747Z,22.34
2023-02-02T06:07:54.080Z,22.33
2023-02-02T06:10:20.395Z,22.32
2023-02-02T06:12:46.710Z,22.31
2023-02-02T06:15:13.014Z,22.31
2023-02-02T06:17:39.327Z,22.29
2023-02-02T06:20:05.784Z,22.26
2023-02-02T06:22:32.285Z,22.22
2023-02-02T06:24:58.852Z,22.20
2023-02-02T06:27:25.171Z,22.18
2023-02-02T06:29:51.720Z,22.16
2023-02-02T06:32:18.043Z,22.13
2023-02-02T06:34:44.357Z,22.13
2023-02-02T06:37:10.727Z,22.10
2023-02-02T06:39:37.035Z,22.09
2023-02-02T06:42:20.090Z,22.08
2023-02-02T06:44:47.309Z,22.10
2023-02-02T06:47:13.629Z,22.12
2023-02-02T06:49:39.939Z,22.12
2023-02-02T06:52:06.941Z,22.13
2023-02-02T06:54:33.326Z,22.13
2023-02-02T06:56:59.665Z,22.13
2023-02-02T06:59:25.969Z,22.13
2023-02-02T07:01:52.352Z,22.13
2023-02-02T07:04:18.737Z,22.15
2023-02-02T07:06:45.575Z,22.14
2023-02-02T07:09:11.938Z,22.14
2023-02-02T07:11:39.521Z,22.12
2023-02-02T07:14:08.427Z,22.12
2023-02-02T07:16:34.864Z,22.10
2023-02-02T07:19:01.197Z,22.09
2023-02-02T07:21:35.338Z,22.06
2023-02-02T07:24:02.637Z,22.05
2023-02-02T07:26:29.193Z,22.01
2023-02-02T07:28:55.660Z,22.02
2023-02-02T07:31:22.700Z,22.00
2023-02-02T07:33:49.169Z,22.00
2023-02-02T07:36:19.288Z,21.98
2023-02-02T07:38:45.826Z,21.95
2023-02-02T07:41:12.358Z,21.92
2023-02-02T07:43:38.926Z,21.91
2023-02-02T07:46:07.234Z,21.92
2023-02-02T07:48:33.933Z,21.87
2023-02-02T07:51:05.021Z,21.86
2023-02-02T07:53:31.411Z,21.85
2023-02-02T07:56:07.720Z,21.93
2023-02-02T07:58:34.069Z,21.98
2023-02-02T08:01:01.096Z,22.18
2023-02-02T08:03:27.447Z,22.34
2023-02-02T08:05:53.825Z,22.45
2023-02-02T08:08:20.150Z,22.51
2023-02-02T08:10:49.900Z,22.55
2023-02-02T08:13:16.269Z,22.58
2023-02-02T08:15:42.611Z,22.63
2023-02-02T08:18:08.944Z,22.60
2023-02-02T08:20:35.254Z,22.59
2023-02-02T08:23:01.588Z,22.57
2023-02-02T08:25:28.361Z,22.58
2023-02-02T08:27:55.159Z,22.55
2023-02-02T08:30:21.494Z,22.48
2023-02-02T08:32:48.078Z,22.47
2023-02-02T08:35:14.417Z,22.44
2023-02-02T08:37:40.757Z,22.40
2023-02-02T08:40:07.492Z,22.40
2023-02-02T08:42:33.842Z,22.36
2023-02-02T08:46:03.133Z,22.35
2023-02-02T08:47:50.398Z,22.33
2023-02-02T08:50:22.426Z,22.28
2023-02-02T08:52:48.820Z,22.15
2023-02-02T08:55:15.847Z,22.12
2023-02-02T08:57:42.258Z,22.08
2023-02-02T09:00:08.900Z,22.09
2023-02-02T09:02:35.296Z,22.08
2023-02-02T09:05:01.923Z,22.08
2023-02-02T09:07:28.266Z,22.01
2023-02-02T09:09:58.044Z,22.10
2023-02-02T09:12:24.963Z,22.06
2023-02-02T09:14:51.310Z,22.04
2023-02-02T09:17:17.619Z,22.04
2023-02-02T09:19:43.977Z,22.03
2023-02-02T09:22:10.293Z,22.03
2023-02-02T09:24:36.629Z,21.97
2023-02-02T09:27:03.026Z,21.91
2023-02-02T09:29:29.394Z,21.87
2023-02-02T09:31:55.719Z,21.90
2023-02-02T09:34:22.062Z,21.89
2023-02-02T09:36:48.514Z,21.89
2023-02-02T09:39:16.524Z,21.94
2023-02-02T09:41:51.269Z,21.98
2023-02-02T09:44:23.950Z,21.95
2023-02-02T09:46:50.186Z,21.92
2023-02-02T09:49:17.860Z,21.94
2023-02-02T09:51:45.547Z,21.90
2023-02-02T09:54:18.770Z,21.89
2023-02-02T09:56:45.528Z,21.88
2023-02-02T09:59:20.440Z,21.87
2023-02-02T10:01:47.580Z,21.86
2023-02-02T10:04:29.423Z,21.86
2023-02-02T10:06:56.653Z,21.83
2023-02-02T10:09:29.125Z,21.79
2023-02-02T10:11:55.376Z,21.77
2023-02-02T10:14:23.275Z,21.77
2023-02-02T10:16:49.616Z,21.71
2023-02-02T10:19:16.142Z,21.69
2023-02-02T10:21:51.981Z,21.72
2023-02-02T10:24:25.351Z,21.71
2023-02-02T10:26:52.845Z,21.68
2023-02-02T10:29:22.447Z,21.68
2023-02-02T10:32:04.118Z,21.67
2023-02-02T10:34:38.083Z,21.71
2023-02-02T10:37:23.751Z,21.71
2023-02-02T10:39:56.066Z,21.73
2023-02-02T10:42:34.291Z,21.72
2023-02-02T10:45:02.886Z,21.73
2023-02-02T10:47:29.691Z,21.72
2023-02-02T10:50:15.445Z,21.71
2023-02-02T10:52:42.775Z,21.72
2023-02-02T10:55:18.925Z,21.68
2023-02-02T10:58:03.801Z,21.69
2023-02-02T11:00:46.619Z,21.70
2023-02-02T11:03:13.836Z,21.67
2023-02-02T11:05:58.837Z,21.67
2023-02-02T11:08:27.508Z,21.71
2023-02-02T11:10:54.865Z,21.69
2023-02-02T11:13:24.259Z,21.68
2023-02-02T11:15:50.659Z,21.67
2023-02-02T11:18:29.687Z,21.61
2023-02-02T11:20:56.152Z,21.59
2023-02-02T11:23:22.478Z,21.60
2023-02-02T11:25:56.828Z,21.71
2023-02-02T11:28:24.823Z,21.77
2023-02-02T11:30:52.472Z,21.70
2023-02-02T11:33:20.286Z,21.68
2023-02-02T11:35:54.603Z,21.65
2023-02-02T11:38:21.426Z,21.62
2023-02-02T11:40:54.752Z,21.66
2023-02-02T11:43:25.983Z,21.69
2023-02-02T11:46:02.736Z,21.82
2023-02-02T11:48:31.004Z,21.92
2023-02-02T11:50:58.097Z,22.02
2023-02-02T11:53:29.172Z,22.09
2023-02-02T11:55:55.872Z,22.12
2023-02-02T11:58:27.590Z,22.13
2023-02-02T12:00:55.090Z,22.13
2023-02-02T12:03:25.790Z,22.14
2023-02-02T12:05:52.106Z,22.13
2023-02-02T12:08:18.964Z,22.14
2023-02-02T12:10:47.285Z,22.11
2023-02-02T12:13:16.563Z,22.14
2023-02-02T12:15:42.812Z,22.13
2023-02-02T12:18:19.320Z,22.12
2023-02-02T12:20:45.559Z,22.11
2023-02-02T12:23:34.013Z,22.11
2023-02-02T12:26:06.251Z,22.14
2023-02-02T12:28:35.586Z,22.16
2023-02-02T12:31:08.316Z,22.21
2023-02-02T12:33:34.657Z,22.22
2023-02-02T12:36:21.942Z,22.26
2023-02-02T12:38:55.461Z,22.19
2023-02-02T12:41:24.166Z,22.17
2023-02-02T12:43:51.029Z,22.19
2023-02-02T12:46:29.558Z,22.22
2023-02-02T12:48:55.809Z,22.25
2023-02-02T12:51:26.056Z,22.34
2023-02-02T12:54:32.726Z,22.39
2023-02-02T12:57:00.347Z,22.44
2023-02-02T12:59:32.331Z,22.44
2023-02-02T13:02:00.380Z,22.44
2023-02-02T13:04:30.859Z,22.45
2023-02-02T13:07:00.311Z,22.44
2023-02-02T13:09:28.560Z,22.42
2023-02-02T13:12:01.003Z,22.42
2023-02-02T13:14:47.784Z,22.40
2023-02-02T13:17:19.313Z,22.39
2023-02-02T13:19:46.878Z,22.39
2023-02-02T13:22:22.103Z,22.39
2023-02-02T13:24:49.155Z,22.40
2023-02-02T13:27:16.177Z,22.39
2023-02-02T13:29:48.800Z,22.38
2023-02-02T13:32:31.449Z,22.38
2023-02-02T13:34:59.117Z,22.39
2023-02-02T13:37:25.383Z,22.32
2023-02-02T13:40:07.099Z,22.11
2023-02-02T13:42:54.354Z,22.11
2023-02-02T13:45:30.061Z,22.20
2023-02-02T13:47:59.113Z,22.23
2023-02-02T13:50:30.067Z,22.27
2023-02-02T13:52:59.372Z,22.27
2023-02-02T13:55:32.387Z,22.27
2023-02-02T13:58:04.068Z,22.23
2023-02-02T14:00:34.766Z,22.23
2023-02-02T14:03:05.941Z,22.31
2023-02-02T14:05:35.009Z,22.41
2023-02-02T14:08:03.238Z,22.50
2023-02-02T14:10:32.576Z,22.50
2023-02-02T14:13:35.538Z,22.50
2023-02-02T14:16:02.478Z,22.47
2023-02-02T14:19:04.045Z,22.42
2023-02-02T14:21:33.321Z,22.46
2023-02-02T14:23:59.575Z,22.48
2023-02-02T14:26:44.880Z,22.44
2023-02-02T14:29:31.483Z,22.41
2023-02-02T14:31:57.974Z,22.39
2023-02-02T14:34:40.030Z,22.36
2023-02-02T14:37:24.809Z,22.33
2023-02-02T14:40:06.543Z,22.32
2023-02-02T14:43:10.615Z,22.40
2023-02-02T14:45:40.374Z,22.45
2023-02-02T14:48:06.623Z,22.41
2023-02-02T14:50:39.253Z,22.37
2023-02-02T14:53:05.558Z,22.33
2023-02-02T14:55:31.892Z,22.33
2023-02-02T14:58:01.998Z,22.25
2023-02-02T15:00:29.786Z,22.16
2023-02-02T15:02:56.267Z,22.14
2023-02-02T15:05:28.835Z,22.11
2023-02-02T15:08:00.676Z,22.06
2023-02-02T15:11:25.541Z,22.11
2023-02-02T15:13:56.018Z,22.27
2023-02-02T15:16:24.073Z,22.27
2023-02-02T15:18:53.768Z,21.12
2023-02-02T15:21:21.921Z,19.46
2023-02-02T15:23:48.315Z,19.45
2023-02-02T15:26:19.592Z,20.91
2023-02-02T15:28:52.240Z,21.39
2023-02-02T15:31:19.778Z,21.60
2023-02-02T15:33:50.130Z,21.67
2023-02-02T15:36:16.375Z,21.69
2023-02-02T15:38:43.289Z,21.73
2023-02-02T15:41:29.657Z,21.72
2023-02-02T15:43:55.982Z,21.63
2023-02-02T15:46:24.509Z,21.68
2023-02-02T15:49:11.438Z,21.75
2023-02-02T15:51:40.396Z,21.78
2023-02-02T15:54:18.785Z,21.76
2023-02-02T15:56:45.148Z,21.84
2023-02-02T15:59:14.920Z,21.83
2023-02-02T16:01:45.096Z,21.81
2023-02-02T16:04:16.254Z,21.94
2023-02-02T16:06:42.573Z,22.09
2023-02-02T16:09:10.127Z,22.25
2023-02-02T16:11:36.439Z,22.52
2023-02-02T16:14:02.752Z,22.80
2023-02-02T16:16:30.102Z,23.08
2023-02-02T16:19:02.740Z,23.36
2023-02-02T16:21:29.082Z,23.44
2023-02-02T16:23:55.416Z,23.41
2023-02-02T16:26:22.266Z,23.36
2023-02-02T16:28:48.593Z,23.34
2023-02-02T16:31:15.371Z,23.35
2023-02-02T16:33:42.335Z,23.32
2023-02-02T16:36:24.371Z,23.34
2023-02-02T16:38:52.321Z,23.38
2023-02-02T16:41:26.296Z,23.40
2023-02-02T16:43:52.651Z,23.49
2023-02-02T16:46:41.811Z,23.51
2023-02-02T16:49:11.263Z,23.55
2023-02-02T16:51:37.584Z,23.59
2023-02-02T16:54:06.822Z,23.62
2023-02-02T16:56:37.504Z,23.63
2023-02-02T16:59:04.521Z,23.63
2023-02-02T17:01:32.512Z,23.63
2023-02-02T17:03:58.841Z,23.65
2023-02-02T17:06:26.230Z,23.69
2023-02-02T17:08:52.548Z,23.82
2023-02-02T17:11:20.253Z,23.86
2023-02-02T17:13:46.567Z,23.60
2023-02-02T17:16:13.808Z,23.58
2023-02-02T17:18:40.302Z,23.58
2023-02-02T17:21:07.648Z,23.61
2023-02-02T17:23:36.252Z,23.71
2023-02-02T17:26:02.810Z,24.09
2023-02-02T17:28:29.751Z,24.17
2023-02-02T17:30:59.768Z,24.21
2023-02-02T17:33:26.103Z,24.24
2023-02-02T17:35:55.674Z,24.27
2023-02-02T17:38:22.887Z,24.29
2023-02-02T17:40:49.361Z,24.32
2023-02-02T17:43:16.132Z,24.29
2023-02-02T17:45:42.870Z,24.29
2023-02-02T17:48:10.141Z,24.27
2023-02-02T17:50:36.509Z,24.51
2023-02-02T17:53:02.997Z,24.59
2023-02-02T17:55:33.187Z,24.28
2023-02-02T17:57:59.540Z,24.39
2023-02-02T18:00:27.002Z,24.48
2023-02-02T18:02:56.962Z,24.42
2023-02-02T18:05:23.786Z,24.45
2023-02-02T18:07:50.540Z,24.55
2023-02-02T18:10:19.344Z,24.56
2023-02-02T18:12:45.677Z,24.56
2023-02-02T18:15:12.546Z,24.57
2023-02-02T18:17:39.257Z,24.55
2023-02-02T18:20:06.078Z,24.54
2023-02-02T18:22:32.463Z,24.50
2023-02-02T18:24:58.809Z,24.56
2023-02-02T18:27:25.332Z,24.57
2023-02-02T18:29:51.755Z,24.61
2023-02-02T18:32:18.123Z,24.58
2023-02-02T18:34:44.441Z,24.56
2023-02-02T18:37:10.767Z,24.56
2023-02-02T18:39:37.115Z,24.58
2023-02-02T18:42:03.509Z,24.56
2023-02-02T18:44:31.571Z,24.55
2023-02-02T18:46:57.912Z,24.55
2023-02-02T18:49:24.233Z,24.55
2023-02-02T18:51:50.668Z,24.59
2023-02-02T18:54:17.059Z,24.54
2023-02-02T18:56:43.419Z,24.48
2023-02-02T18:59:09.726Z,24.47
2023-02-02T19:01:36.478Z,24.43
2023-02-02T19:04:03.479Z,24.43
2023-02-02T19:06:48.400Z,24.38
2023-02-02T19:09:17.052Z,24.14
2023-02-02T19:11:44.910Z,24.34
2023-02-02T19:14:12.646Z,24.42
2023-02-02T19:16:38.971Z,24.59
2023-02-02T19:19:08.164Z,24.65
2023-02-02T19:21:34.783Z,24.71
2023-02-02T19:24:01.147Z,24.72
2023-02-02T19:26:28.067Z,24.67
2023-02-02T19:28:54.909Z,24.81
2023-02-02T19:31:21.360Z,25.18
2023-02-02T19:33:51.032Z,25.34
2023-02-02T19:36:17.275Z,25.43
2023-02-02T19:38:43.631Z,25.57
2023-02-02T19:41:14.119Z,25.43
2023-02-02T19:43:44.131Z,25.02
2023-02-02T19:46:14.403Z,24.72
2023-02-02T19:48:40.811Z,25.21
2023-02-02T19:51:25.685Z,25.44
2023-02-02T19:53:52.003Z,25.55
2023-02-02T19:56:27.777Z,25.58
2023-02-02T19:58:54.090Z,25.65
2023-02-02T20:01:20.677Z,25.68
2023-02-02T20:03:47.111Z,25.70
2023-02-02T20:06:16.529Z,25.72
2023-02-02T20:08:43.067Z,25.75
2023-02-02T20:11:15.668Z,25.74
2023-02-02T20:13:42.619Z,25.82
2023-02-02T20:16:11.675Z,25.84
2023-02-02T20:18:40.298Z,25.88
2023-02-02T20:21:07.440Z,25.91
2023-02-02T20:23:40.245Z,25.91
2023-02-02T20:26:29.292Z,25.94
2023-02-02T20:28:58.979Z,25.91
2023-02-02T20:31:26.171Z,25.96
2023-02-02T20:33:53.039Z,25.96
2023-02-02T20:36:22.340Z,26.02
2023-02-02T20:38:48.680Z,25.87
2023-02-02T20:41:16.731Z,25.83
2023-02-02T20:43:44.523Z,25.82
2023-02-02T20:46:10.889Z,25.85
2023-02-02T20:48:37.334Z,25.85
2023-02-02T20:51:03.749Z,25.79
2023-02-02T20:53:30.396Z,25.81
2023-02-02T20:55:59.712Z,25.83
2023-02-02T20:58:26.049Z,25.79
2023-02-02T21:00:52.394Z,25.81
2023-02-02T21:03:18.734Z,25.81
2023-02-02T21:05:45.045Z,25.84
2023-02-02T21:08:11.412Z,25.86
2023-02-02T21:10:37.731Z,25.84
2023-02-02T21:13:04.068Z,25.82
2023-02-02T21:15:30.388Z,25.51
2023-02-02T21:17:56.713Z,25.28
2023-02-02T21:20:23.340Z,25.46
2023-02-02T21:22:49.701Z,25.48
2023-02-02T21:25:16.063Z,25.45
2023-02-02T21:27:42.442Z,25.43
2023-02-02T21:30:11.345Z,25.43
2023-02-02T21:32:37.678Z,25.42
2023-02-02T21:35:04.498Z,25.39
2023-02-02T21:37:30.859Z,25.33
2023-02-02T21:39:58.026Z,25.31
2023-02-02T21:42:24.383Z,25.34
2023-02-02T21:44:57.252Z,25.31
2023-02-02T21:47:33.615Z,25.30
2023-02-02T21:50:19.635Z,25.27
2023-02-02T21:52:46.061Z,25.26
2023-02-02T21:55:18.548Z,25.25
2023-02-02T21:57:44.967Z,25.22
2023-02-02T22:00:22.247Z,25.19
2023-02-02T22:02:48.751Z,25.20
2023-02-02T22:05:17.985Z,25.17
2023-02-02T22:07:47.891Z,25.15
2023-02-02T22:10:20.341Z,25.11
2023-02-02T22:12:46.674Z,25.08
2023-02-02T22:15:16.244Z,25.08
2023-02-02T22:17:44.784Z,24.95
2023-02-02T22:20:18.333Z,24.89
2023-02-02T22:22:45.475Z,24.84
2023-02-02T22:25:17.843Z,24.60
2023-02-02T22:27:48.558Z,24.56
2023-02-02T22:30:28.258Z,24.77
2023-02-02T22:32:54.822Z,24.78
2023-02-02T22:35:21.573Z,24.78
2023-02-02T22:37:47.898Z,24.77
2023-02-02T22:40:16.307Z,24.77
2023-02-02T22:42:42.972Z,24.73
2023-02-02T22:45:09.311Z,24.77
2023-02-02T22:47:35.664Z,24.66
2023-02-02T22:50:02.052Z,24.52
2023-02-02T22:52:28.382Z,24.44
2023-02-02T22:54:54.704Z,24.38
2023-02-02T22:57:21.014Z,24.35
2023-02-02T22:59:47.331Z,24.20
2023-02-02T23:02:13.667Z,24.01
2023-02-02T23:04:40.015Z,23.85
2023-02-02T23:07:06.332Z,23.79
2023-02-02T23:09:32.648Z,23.80
2023-02-02T23:11:58.977Z,23.79
2023-02-02T23:14:25.286Z,23.76
2023-02-02T23:16:51.593Z,23.73
2023-02-02T23:19:17.909Z,23.67
2023-02-02T23:21:44.238Z,23.64
2023-02-02T23:24:10.550Z,23.60
2023-02-02T23:26:36.874Z,23.56
2023-02-02T23:29:03.190Z,23.54
2023-02-02T23:31:29.591Z,23.53
2023-02-02T23:33:55.932Z,23.52
2023-02-02T23:36:22.249Z,23.50
2023-02-02T23:38:48.607Z,23.47
2023-02-02T23:41:14.911Z,23.43
2023-02-02T23:43:42.591Z,23.41
2023-02-02T23:46:09.687Z,23.36
2023-02-02T23:48:36.002Z,23.36
2023-02-02T23:51:02.326Z,23.34
2023-02-02T23:53:28.703Z,23.31
2023-02-02T23:55:55.193Z,23.31
